Pickering, Louisiana
Current Conditions -  °F | °C
As of 9:58 PM on Wednesday 26 Nov 2014 (Local Time) from KPOE Reporting Station
Clear Clear  
Wind Chill: 49°   Ceiling: Unl
Heat Index: 49°   Visibility: 10mi
Dew Point: 42°   Wind: 2mph
Humidity: 77%   Direction: 200°SSW
Pressure: 30.27"   Gusts: NA
Location:  31.2063°N, 93.1344°W
Report Text: KPOE 270358Z AUTO 20002KT 10SM CLR 10/06 A3027 RMK AO2 SLP252 T00950057
Loading
Personal Weather Stations






























Interactive Weather Map New forecast layout! Learn more

10-Day Weather Forecast

Advertisements
Track Severe Weather on mobile